createdAt,value
2023-07-07T00:01:15.921Z,2.45
2023-07-07T00:03:44.033Z,2.75
2023-07-07T00:06:11.614Z,2.25
2023-07-07T00:08:39.300Z,2.38
2023-07-07T00:11:06.865Z,2.72
2023-07-07T00:13:35.761Z,2.15
2023-07-07T00:16:04.559Z,2.17
2023-07-07T00:18:32.338Z,2.55
2023-07-07T00:21:01.924Z,2.25
2023-07-07T00:23:31.173Z,2.30
2023-07-07T00:26:03.769Z,2.20
2023-07-07T00:28:31.836Z,2.38
2023-07-07T00:31:01.550Z,2.78
2023-07-07T00:33:30.004Z,2.40
2023-07-07T00:35:57.572Z,2.28
2023-07-07T00:38:25.203Z,2.95
2023-07-07T00:40:54.094Z,2.67
2023-07-07T00:43:23.121Z,2.90
2023-07-07T00:45:50.756Z,3.40
2023-07-07T00:48:23.026Z,3.42
2023-07-07T00:50:54.096Z,4.18
2023-07-07T00:53:22.674Z,3.75
2023-07-07T00:55:54.909Z,3.38
2023-07-07T00:58:24.917Z,3.67
2023-07-07T01:00:58.986Z,4.05
2023-07-07T01:03:33.609Z,3.75
2023-07-07T01:06:03.901Z,3.50
2023-07-07T01:08:31.676Z,3.33
2023-07-07T01:10:59.379Z,2.60
2023-07-07T01:13:28.222Z,2.42
2023-07-07T01:16:07.695Z,2.63
2023-07-07T01:18:42.440Z,2.75
2023-07-07T01:21:17.937Z,3.00
2023-07-07T01:24:20.326Z,4.07
2023-07-07T01:27:02.001Z,3.55
2023-07-07T01:29:56.458Z,3.03
2023-07-07T01:32:30.102Z,3.08
2023-07-07T01:34:59.676Z,2.90
2023-07-07T01:37:27.362Z,3.10
2023-07-07T01:39:56.339Z,2.67
2023-07-07T01:42:29.970Z,2.72
2023-07-07T01:45:05.817Z,2.65
2023-07-07T01:47:37.708Z,2.42
2023-07-07T01:50:09.744Z,2.83
2023-07-07T01:52:41.973Z,2.90
2023-07-07T01:55:16.993Z,2.95
2023-07-07T01:57:47.436Z,2.17
2023-07-07T02:00:17.598Z,2.35
2023-07-07T02:02:46.980Z,2.65
2023-07-07T02:05:15.377Z,2.40
2023-07-07T02:07:43.216Z,2.80
2023-07-07T02:10:11.939Z,3.22
2023-07-07T02:12:39.648Z,2.95
2023-07-07T02:15:08.586Z,2.72
2023-07-07T02:17:36.464Z,2.80
2023-07-07T02:20:06.622Z,2.10
2023-07-07T02:22:34.290Z,2.30
2023-07-07T02:25:01.946Z,2.40
2023-07-07T02:27:29.563Z,2.83
2023-07-07T02:29:57.239Z,2.67
2023-07-07T02:32:27.189Z,2.45
2023-07-07T02:34:56.387Z,2.80
2023-07-07T02:37:25.626Z,2.97
2023-07-07T02:39:53.475Z,3.30
2023-07-07T02:42:21.089Z,3.10
2023-07-07T02:44:48.746Z,3.03
2023-07-07T02:47:16.450Z,3.13
2023-07-07T02:49:44.104Z,3.00
2023-07-07T02:52:12.191Z,3.53
2023-07-07T02:54:41.197Z,2.78
2023-07-07T02:57:08.886Z,2.85
2023-07-07T02:59:36.462Z,3.20
2023-07-07T03:02:05.657Z,3.97
2023-07-07T03:04:33.297Z,4.10
2023-07-07T03:07:00.941Z,3.95
2023-07-07T03:09:28.578Z,3.88
2023-07-07T03:11:57.575Z,3.85
2023-07-07T03:14:25.191Z,4.40
2023-07-07T03:16:53.599Z,4.50
2023-07-07T03:19:21.691Z,3.50
2023-07-07T03:21:49.385Z,3.70
2023-07-07T03:24:17.485Z,3.78
2023-07-07T03:26:45.577Z,4.30
2023-07-07T03:29:14.709Z,4.20
2023-07-07T03:31:42.395Z,4.07
2023-07-07T03:34:10.131Z,4.10
2023-07-07T03:36:38.428Z,4.25
2023-07-07T03:39:06.349Z,3.83
2023-07-07T03:41:34.162Z,4.68
2023-07-07T03:44:02.127Z,3.20
2023-07-07T03:46:31.762Z,3.45
2023-07-07T03:49:00.318Z,3.88
2023-07-07T03:51:29.933Z,3.92
2023-07-07T03:53:57.670Z,4.10
2023-07-07T03:56:27.767Z,3.45
2023-07-07T03:58:55.461Z,3.97
2023-07-07T04:01:23.077Z,4.00
2023-07-07T04:03:52.269Z,3.75
2023-07-07T04:06:21.114Z,4.07
2023-07-07T04:08:49.005Z,3.58
2023-07-07T04:11:18.668Z,3.97
2023-07-07T04:13:49.741Z,3.60
2023-07-07T04:16:20.524Z,3.47
2023-07-07T04:18:48.758Z,4.07
2023-07-07T04:21:21.206Z,3.50
2023-07-07T04:26:18.949Z,3.65
2023-07-07T04:28:46.635Z,3.40
2023-07-07T04:31:15.440Z,3.97
2023-07-07T04:33:43.715Z,3.25
2023-07-07T04:36:14.096Z,3.60
2023-07-07T04:38:43.999Z,4.32
2023-07-07T04:41:13.908Z,4.35
2023-07-07T04:43:44.175Z,3.55
2023-07-07T04:46:13.430Z,4.00
2023-07-07T04:48:42.019Z,3.60
2023-07-07T04:51:11.761Z,4.32
2023-07-07T04:53:42.104Z,4.22
2023-07-07T04:56:12.616Z,4.68
2023-07-07T04:58:41.620Z,4.78
2023-07-07T05:01:10.605Z,16.15
2023-07-07T05:03:42.931Z,5.78
2023-07-07T05:06:11.713Z,4.25
2023-07-07T05:08:41.420Z,4.40
2023-07-07T05:11:13.717Z,4.30
2023-07-07T05:13:41.555Z,4.22
2023-07-07T05:16:11.328Z,4.45
2023-07-07T05:18:39.366Z,4.78
2023-07-07T05:21:09.904Z,4.00
2023-07-07T05:23:38.462Z,4.90
2023-07-07T05:26:09.155Z,3.83
2023-07-07T05:28:38.410Z,4.00
2023-07-07T05:31:08.508Z,4.18
2023-07-07T05:33:36.891Z,3.72
2023-07-07T05:36:05.988Z,3.60
2023-07-07T05:38:34.014Z,3.95
2023-07-07T05:41:02.143Z,4.15
2023-07-07T05:43:30.106Z,4.07
2023-07-07T05:46:01.196Z,3.97
2023-07-07T05:48:29.622Z,3.88
2023-07-07T05:51:00.373Z,3.95
2023-07-07T05:53:29.240Z,3.65
2023-07-07T05:56:05.050Z,4.53
2023-07-07T05:58:33.209Z,4.22
2023-07-07T06:01:02.473Z,3.38
2023-07-07T06:03:30.347Z,4.25
2023-07-07T06:05:57.913Z,4.22
2023-07-07T06:08:25.531Z,3.80
2023-07-07T06:10:53.401Z,4.35
2023-07-07T06:13:25.196Z,3.80
2023-07-07T06:15:54.006Z,4.15
2023-07-07T06:18:23.818Z,4.03
2023-07-07T06:20:52.695Z,4.05
2023-07-07T06:23:20.668Z,4.03
2023-07-07T06:25:49.046Z,3.60
2023-07-07T06:28:17.005Z,3.55
2023-07-07T06:30:45.190Z,3.75
2023-07-07T06:33:12.778Z,4.32
2023-07-07T06:35:41.945Z,3.90
2023-07-07T06:38:09.594Z,4.28
2023-07-07T06:40:37.192Z,4.35
2023-07-07T06:43:04.683Z,4.53
2023-07-07T06:45:35.225Z,3.78
2023-07-07T06:48:03.952Z,4.30
2023-07-07T06:50:33.140Z,4.20
2023-07-07T06:53:02.047Z,4.60
2023-07-07T06:55:29.568Z,4.15
2023-07-07T06:57:57.128Z,4.50
2023-07-07T07:00:25.040Z,4.65
2023-07-07T07:02:52.672Z,3.83
2023-07-07T07:05:20.496Z,4.32
2023-07-07T07:07:49.058Z,4.60
2023-07-07T07:10:18.184Z,4.78
2023-07-07T07:12:45.737Z,4.35
2023-07-07T07:15:13.262Z,4.28
2023-07-07T07:17:40.886Z,4.78
2023-07-07T07:20:12.099Z,3.97
2023-07-07T07:22:39.660Z,4.38
2023-07-07T07:25:10.038Z,4.07
2023-07-07T07:27:41.558Z,4.40
2023-07-07T07:30:13.134Z,3.80
2023-07-07T07:32:40.787Z,3.75
2023-07-07T07:35:09.100Z,4.82
2023-07-07T07:37:37.413Z,4.55
2023-07-07T07:40:06.444Z,3.88
2023-07-07T07:42:34.297Z,4.05
2023-07-07T07:45:03.857Z,3.88
2023-07-07T07:47:35.848Z,3.70
2023-07-07T07:50:06.057Z,3.70
2023-07-07T07:52:41.635Z,4.32
2023-07-07T07:55:21.602Z,3.70
2023-07-07T07:57:57.066Z,4.03
2023-07-07T08:00:32.922Z,3.80
2023-07-07T08:03:09.949Z,3.80
2023-07-07T08:05:37.879Z,5.22
2023-07-07T08:08:07.363Z,4.22
2023-07-07T08:10:36.362Z,3.80
2023-07-07T08:13:06.273Z,4.35
2023-07-07T08:15:38.044Z,4.05
2023-07-07T08:40:22.820Z,3.85
2023-07-07T08:43:25.237Z,3.97
2023-07-07T08:46:00.874Z,3.60
2023-07-07T08:48:42.556Z,4.20
2023-07-07T08:51:18.979Z,4.28
2023-07-07T08:56:35.913Z,4.50
2023-07-07T08:59:16.408Z,3.80
2023-07-07T09:01:55.817Z,4.53
2023-07-07T09:04:33.350Z,3.92
2023-07-07T09:07:20.294Z,4.60
2023-07-07T09:10:04.133Z,4.63
2023-07-07T09:12:39.390Z,4.05
2023-07-07T09:15:15.024Z,4.40
2023-07-07T09:17:46.961Z,4.13
2023-07-07T09:20:18.094Z,5.95
2023-07-07T09:22:49.543Z,4.45
2023-07-07T09:25:21.253Z,4.22
2023-07-07T09:27:59.525Z,4.30
2023-07-07T09:30:32.291Z,4.40
2023-07-07T09:33:00.183Z,4.18
2023-07-07T09:35:32.838Z,4.13
2023-07-07T09:38:12.306Z,4.57
2023-07-07T09:40:46.024Z,4.05
2023-07-07T09:43:26.097Z,3.90
2023-07-07T09:46:09.038Z,4.00
2023-07-07T09:48:45.020Z,4.32
2023-07-07T09:51:24.130Z,4.13
2023-07-07T09:53:52.504Z,3.97
2023-07-07T09:56:24.067Z,4.15
2023-07-07T09:59:04.381Z,4.10
2023-07-07T10:01:37.652Z,4.07
2023-07-07T10:04:14.794Z,4.05
2023-07-07T10:06:49.455Z,3.65
2023-07-07T10:09:17.415Z,4.00
2023-07-07T10:14:19.510Z,4.70
2023-07-07T10:16:56.444Z,5.20
2023-07-07T10:19:25.166Z,4.18
2023-07-07T10:21:53.387Z,4.78
2023-07-07T10:24:21.875Z,5.10
2023-07-07T10:26:49.590Z,4.65
2023-07-07T10:29:22.331Z,4.32
2023-07-07T10:31:52.138Z,4.18
2023-07-07T10:34:27.425Z,4.72
2023-07-07T10:36:56.819Z,4.10
2023-07-07T10:39:25.348Z,3.97
2023-07-07T10:41:52.893Z,4.47
2023-07-07T10:44:25.207Z,4.30
2023-07-07T10:46:52.826Z,4.68
2023-07-07T10:49:25.434Z,4.57
2023-07-07T10:52:11.431Z,4.95
2023-07-07T10:54:47.803Z,4.40
2023-07-07T10:57:26.161Z,5.60
2023-07-07T11:00:04.266Z,5.43
2023-07-07T11:02:59.725Z,5.47
2023-07-07T11:05:36.958Z,6.15
2023-07-07T11:08:21.430Z,5.18
2023-07-07T11:11:07.656Z,4.90
2023-07-07T11:13:51.096Z,4.78
2023-07-07T11:16:32.972Z,4.60
2023-07-07T11:19:18.060Z,4.93
2023-07-07T11:21:57.945Z,4.82
2023-07-07T11:24:54.982Z,5.00
2023-07-07T11:30:01.861Z,4.65
2023-07-07T11:32:39.794Z,5.30
2023-07-07T11:35:18.874Z,5.95
2023-07-07T11:38:00.986Z,5.22
2023-07-07T11:43:21.674Z,5.63
2023-07-07T11:46:08.416Z,5.60
2023-07-07T11:48:42.026Z,5.57
2023-07-07T11:51:24.856Z,5.60
2023-07-07T11:54:08.806Z,5.35
2023-07-07T11:56:53.656Z,5.70
2023-07-07T11:59:39.154Z,5.55
2023-07-07T12:02:15.749Z,6.20
2023-07-07T12:04:46.568Z,5.88
2023-07-07T12:07:21.507Z,5.60
2023-07-07T12:09:54.601Z,6.25
2023-07-07T12:12:29.047Z,5.93
2023-07-07T12:15:04.015Z,6.35
2023-07-07T12:17:37.790Z,6.38
2023-07-07T12:20:15.680Z,6.72
2023-07-07T12:22:43.283Z,6.63
2023-07-07T12:25:22.708Z,6.55
2023-07-07T12:27:52.684Z,6.03
2023-07-07T12:30:26.265Z,6.47
2023-07-07T12:32:54.391Z,6.32
2023-07-07T12:35:29.730Z,7.53
2023-07-07T12:37:58.513Z,7.53
2023-07-07T12:40:26.785Z,6.35
2023-07-07T12:43:01.060Z,5.85
2023-07-07T12:45:32.650Z,6.18
2023-07-07T12:48:05.806Z,7.03
2023-07-07T12:50:37.806Z,6.78
2023-07-07T12:55:39.087Z,7.03
2023-07-07T12:58:32.977Z,13.60
2023-07-07T13:01:12.100Z,6.93
2023-07-07T13:03:47.482Z,6.78
2023-07-07T13:06:34.528Z,4.43
2023-07-07T13:09:22.003Z,7.80
2023-07-07T13:11:52.232Z,8.20
2023-07-07T13:14:32.624Z,6.82
2023-07-07T13:17:02.643Z,6.85
2023-07-07T13:19:30.868Z,7.07
2023-07-07T13:22:03.678Z,7.10
2023-07-07T13:24:41.204Z,6.75
2023-07-07T13:27:14.773Z,6.32
2023-07-07T13:29:43.197Z,6.63
2023-07-07T13:32:27.326Z,6.68
2023-07-07T13:34:55.842Z,6.65
2023-07-07T13:37:26.548Z,6.45
2023-07-07T13:39:54.206Z,6.03
2023-07-07T13:42:25.385Z,6.53
2023-07-07T13:45:00.420Z,6.53
2023-07-07T13:47:32.282Z,5.65
2023-07-07T13:50:02.647Z,6.20
2023-07-07T13:52:34.379Z,6.15
2023-07-07T13:55:01.915Z,6.50
2023-07-07T13:57:32.321Z,5.53
2023-07-07T14:00:01.904Z,6.80
2023-07-07T14:02:30.319Z,5.53
2023-07-07T14:05:02.339Z,5.93
2023-07-07T14:07:29.973Z,6.20
2023-07-07T14:09:59.357Z,6.05
2023-07-07T14:12:30.036Z,5.60
2023-07-07T14:15:00.242Z,5.72
2023-07-07T14:17:34.681Z,6.90
2023-07-07T14:20:09.235Z,5.47
2023-07-07T14:22:37.617Z,6.47
2023-07-07T14:25:08.414Z,5.88
2023-07-07T14:27:36.170Z,15.75
2023-07-07T14:30:03.983Z,8.95
2023-07-07T14:32:37.584Z,11.73
2023-07-07T14:35:15.765Z,6.32
2023-07-07T14:37:50.149Z,6.07
2023-07-07T14:40:28.729Z,6.00
2023-07-07T14:42:57.023Z,5.85
2023-07-07T14:45:27.104Z,5.53
2023-07-07T14:47:55.321Z,5.93
2023-07-07T14:50:23.564Z,6.00
2023-07-07T14:52:54.546Z,5.57
2023-07-07T14:55:26.092Z,5.73
2023-07-07T14:57:58.137Z,6.03
2023-07-07T15:00:37.836Z,5.57
2023-07-07T15:03:29.681Z,5.60
2023-07-07T15:06:02.011Z,5.80
2023-07-07T15:08:31.126Z,6.07
2023-07-07T15:11:02.581Z,6.78
2023-07-07T15:13:30.973Z,6.60
2023-07-07T15:15:58.979Z,5.72
2023-07-07T15:18:26.792Z,5.90
2023-07-07T15:20:54.332Z,5.18
2023-07-07T15:23:21.863Z,5.32
2023-07-07T15:25:49.819Z,5.53
2023-07-07T15:28:22.061Z,5.78
2023-07-07T15:30:49.644Z,5.05
2023-07-07T15:33:18.256Z,5.38
2023-07-07T15:35:46.034Z,5.30
2023-07-07T15:38:47.351Z,5.55
2023-07-07T15:41:16.757Z,5.70
2023-07-07T15:43:45.933Z,5.28
2023-07-07T15:46:15.708Z,5.20
2023-07-07T15:48:43.275Z,5.63
2023-07-07T15:51:31.860Z,6.05
2023-07-07T15:54:00.157Z,5.45
2023-07-07T15:56:30.382Z,4.90
2023-07-07T15:58:59.728Z,5.00
2023-07-07T16:01:27.833Z,5.47
2023-07-07T16:03:55.665Z,5.28
2023-07-07T16:06:23.851Z,5.82
2023-07-07T16:08:51.398Z,5.45
2023-07-07T16:11:21.108Z,5.22
2023-07-07T16:13:51.162Z,5.18
2023-07-07T16:16:23.520Z,5.53
2023-07-07T16:18:51.709Z,5.40
2023-07-07T16:21:22.162Z,5.70
2023-07-07T16:23:49.986Z,5.78
2023-07-07T16:26:25.460Z,5.22
2023-07-07T16:28:53.197Z,5.65
2023-07-07T16:31:23.342Z,5.07
2023-07-07T16:33:50.993Z,5.15
2023-07-07T16:36:20.779Z,5.72
2023-07-07T16:38:49.508Z,5.85
2023-07-07T16:41:20.085Z,5.80
2023-07-07T16:43:47.669Z,5.13
2023-07-07T16:46:17.287Z,5.82
2023-07-07T16:48:49.922Z,5.18
2023-07-07T16:51:20.861Z,5.78
2023-07-07T16:53:48.806Z,5.90
2023-07-07T16:56:20.931Z,5.18
2023-07-07T16:58:48.511Z,5.63
2023-07-07T17:01:17.335Z,4.72
2023-07-07T17:03:46.561Z,5.20
2023-07-07T17:06:24.659Z,5.43
2023-07-07T17:08:52.877Z,4.85
2023-07-07T17:11:20.623Z,5.40
2023-07-07T17:13:48.425Z,5.57
2023-07-07T17:16:21.536Z,5.35
2023-07-07T17:18:52.265Z,5.40
2023-07-07T17:21:21.205Z,5.25
2023-07-07T17:23:49.687Z,5.25
2023-07-07T17:26:18.471Z,5.32
2023-07-07T17:28:46.249Z,4.80
2023-07-07T17:31:15.814Z,5.28
2023-07-07T17:33:43.720Z,5.22
2023-07-07T17:36:19.256Z,4.90
2023-07-07T17:38:46.852Z,5.55
2023-07-07T17:41:15.431Z,5.40
2023-07-07T17:43:43.340Z,4.78
2023-07-07T17:46:23.863Z,5.28
2023-07-07T17:48:51.736Z,5.43
2023-07-07T17:51:20.617Z,5.57
2023-07-07T17:53:48.349Z,5.45
2023-07-07T17:56:18.310Z,5.40
2023-07-07T17:58:46.247Z,5.18
2023-07-07T18:01:14.008Z,5.57
2023-07-07T18:03:41.800Z,5.22
2023-07-07T18:06:18.123Z,5.55
2023-07-07T18:08:47.864Z,5.13
2023-07-07T18:11:18.583Z,5.05
2023-07-07T18:13:46.771Z,5.20
2023-07-07T18:16:18.493Z,5.00
2023-07-07T18:19:07.176Z,4.80
2023-07-07T18:21:49.166Z,5.70
2023-07-07T18:24:23.110Z,5.50
2023-07-07T18:26:50.697Z,5.22
2023-07-07T18:29:21.536Z,5.30
2023-07-07T18:31:49.167Z,5.22
2023-07-07T18:34:17.101Z,5.03
2023-07-07T18:36:47.717Z,4.88
2023-07-07T18:39:21.253Z,5.67
2023-07-07T18:41:50.301Z,5.07
2023-07-07T18:44:18.668Z,5.50
2023-07-07T18:46:46.256Z,5.72
2023-07-07T18:49:14.766Z,5.50
2023-07-07T18:51:43.624Z,5.75
2023-07-07T18:54:11.775Z,5.53
2023-07-07T18:56:40.160Z,5.10
2023-07-07T18:59:13.008Z,5.45
2023-07-07T19:01:41.044Z,4.88
2023-07-07T19:04:08.967Z,5.18
2023-07-07T19:06:39.218Z,5.13
2023-07-07T19:09:16.171Z,5.28
2023-07-07T19:11:43.820Z,5.25
2023-07-07T19:14:12.807Z,5.55
2023-07-07T19:16:40.818Z,5.20
2023-07-07T19:19:13.719Z,5.20
2023-07-07T19:21:41.280Z,5.80
2023-07-07T19:24:11.626Z,5.60
2023-07-07T19:26:44.583Z,5.32
2023-07-07T19:29:15.013Z,5.68
2023-07-07T19:31:43.441Z,15.07
2023-07-07T19:34:12.558Z,6.32
2023-07-07T19:36:41.737Z,5.72
2023-07-07T19:39:15.989Z,6.00
2023-07-07T19:41:43.617Z,5.60
2023-07-07T19:44:11.918Z,5.57
2023-07-07T19:46:42.562Z,5.32
2023-07-07T19:49:17.570Z,5.80
2023-07-07T19:51:45.499Z,5.28
2023-07-07T19:54:13.166Z,5.03
2023-07-07T19:56:41.437Z,5.00
2023-07-07T19:59:13.817Z,4.65
2023-07-07T20:01:42.972Z,5.40
2023-07-07T20:04:10.530Z,5.00
2023-07-07T20:06:41.641Z,5.72
2023-07-07T20:09:15.876Z,5.35
2023-07-07T20:11:43.387Z,5.57
2023-07-07T20:14:10.949Z,5.82
2023-07-07T20:16:44.978Z,4.82
2023-07-07T20:19:14.368Z,4.85
2023-07-07T20:21:42.229Z,5.28
2023-07-07T20:24:15.741Z,5.38
2023-07-07T20:26:46.855Z,4.82
2023-07-07T20:29:15.779Z,7.38
2023-07-07T20:31:45.056Z,7.78
2023-07-07T20:34:13.672Z,6.47
2023-07-07T20:36:43.446Z,5.53
2023-07-07T20:39:14.045Z,5.70
2023-07-07T20:41:41.937Z,6.25
2023-07-07T20:44:09.531Z,5.32
2023-07-07T20:46:39.557Z,5.30
2023-07-07T20:49:15.177Z,5.40
2023-07-07T20:51:42.827Z,5.05
2023-07-07T20:54:10.390Z,5.55
2023-07-07T20:56:37.952Z,5.95
2023-07-07T20:59:17.750Z,5.32
2023-07-07T21:01:53.337Z,5.10
2023-07-07T21:04:22.325Z,5.32
2023-07-07T21:06:49.862Z,4.88
2023-07-07T21:09:18.024Z,4.90
2023-07-07T21:11:46.112Z,4.88
2023-07-07T21:14:13.940Z,4.88
2023-07-07T21:16:45.672Z,5.28
2023-07-07T21:19:13.657Z,5.75
2023-07-07T21:21:43.247Z,5.15
2023-07-07T21:24:10.823Z,5.50
2023-07-07T21:26:38.634Z,5.00
2023-07-07T21:29:11.121Z,5.10
2023-07-07T21:31:40.201Z,4.60
2023-07-07T21:34:08.245Z,5.55
2023-07-07T21:36:38.254Z,5.85
2023-07-07T21:39:20.362Z,5.40
2023-07-07T21:41:53.563Z,4.82
2023-07-07T21:44:34.156Z,5.80
2023-07-07T21:47:01.959Z,5.60
2023-07-07T21:49:29.501Z,4.93
2023-07-07T21:51:57.092Z,5.55
2023-07-07T21:54:26.180Z,5.32
2023-07-07T21:56:53.741Z,6.15
2023-07-07T21:59:23.107Z,5.28
2023-07-07T22:01:52.694Z,5.15
2023-07-07T22:04:22.758Z,5.30
2023-07-07T22:06:50.561Z,5.03
2023-07-07T22:09:19.369Z,5.10
2023-07-07T22:11:48.296Z,5.40
2023-07-07T22:14:15.834Z,5.88
2023-07-07T22:16:43.352Z,5.07
2023-07-07T22:19:13.430Z,5.35
2023-07-07T22:21:41.097Z,5.28
2023-07-07T22:24:08.842Z,5.63
2023-07-07T22:26:36.839Z,6.22
2023-07-07T22:29:05.874Z,5.15
2023-07-07T22:31:33.397Z,5.68
2023-07-07T22:34:01.042Z,5.50
2023-07-07T22:36:28.662Z,4.85
2023-07-07T22:38:56.366Z,5.00
2023-07-07T22:41:26.044Z,5.57
2023-07-07T22:43:53.989Z,5.78
2023-07-07T22:46:26.389Z,5.40
2023-07-07T22:48:54.027Z,5.43
2023-07-07T22:51:22.243Z,5.53
2023-07-07T22:53:50.000Z,6.05
2023-07-07T22:56:24.680Z,4.78
2023-07-07T22:58:52.797Z,5.10
2023-07-07T23:01:20.749Z,6.03
2023-07-07T23:03:52.586Z,5.22
2023-07-07T23:06:20.307Z,5.60
2023-07-07T23:08:48.331Z,5.70
2023-07-07T23:11:17.455Z,5.63
2023-07-07T23:13:45.138Z,5.38
2023-07-07T23:16:13.822Z,5.90
2023-07-07T23:18:42.450Z,5.93
2023-07-07T23:21:13.108Z,5.43
2023-07-07T23:23:40.556Z,5.18
2023-07-07T23:26:15.640Z,5.28
2023-07-07T23:28:43.155Z,5.45
2023-07-07T23:31:11.556Z,5.20
2023-07-07T23:33:39.148Z,5.30
2023-07-07T23:36:16.740Z,5.28
2023-07-07T23:38:45.405Z,5.07
2023-07-07T23:41:13.987Z,5.20
2023-07-07T23:43:41.580Z,5.20
2023-07-07T23:46:12.713Z,5.00
2023-07-07T23:48:40.452Z,5.00
2023-07-07T23:51:11.071Z,4.70
2023-07-07T23:53:40.251Z,5.57
2023-07-07T23:56:13.559Z,5.10
2023-07-07T23:58:41.150Z,5.00
